createdAt,value
2017-10-30T00:02:17.950Z,25.42
2017-10-30T00:04:49.290Z,24.83
2017-10-30T00:07:17.307Z,10.32
2017-10-30T00:09:46.258Z,9.40
2017-10-30T00:12:14.278Z,7.60
2017-10-30T00:14:42.306Z,24.65
2017-10-30T00:17:10.330Z,12.43
2017-10-30T00:19:40.379Z,15.77
2017-10-30T00:22:08.430Z,11.63
2017-10-30T00:24:40.035Z,14.93
2017-10-30T00:27:09.725Z,12.40
2017-10-30T00:29:37.754Z,15.32
2017-10-30T00:32:07.506Z,6.40
2017-10-30T00:34:35.518Z,13.30
2017-10-30T00:37:06.598Z,12.65
2017-10-30T00:39:36.622Z,17.70
2017-10-30T00:42:04.659Z,19.62
2017-10-30T00:44:32.670Z,18.17
2017-10-30T00:47:00.695Z,9.48
2017-10-30T00:49:28.682Z,17.42
2017-10-30T00:51:57.714Z,15.27
2017-10-30T00:54:27.505Z,9.27
2017-10-30T00:56:59.506Z,17.12
2017-10-30T00:59:27.530Z,10.68
2017-10-30T01:01:57.545Z,18.10
2017-10-30T01:04:26.662Z,12.05
2017-10-30T01:06:57.382Z,13.88
2017-10-30T01:09:27.414Z,8.35
2017-10-30T01:11:56.190Z,11.45
2017-10-30T01:14:28.449Z,14.52
2017-10-30T01:16:56.470Z,12.98
2017-10-30T01:19:24.486Z,12.90
2017-10-30T01:21:52.562Z,11.75
2017-10-30T01:24:20.578Z,15.48
2017-10-30T01:26:51.678Z,11.57
2017-10-30T01:29:20.702Z,10.55
2017-10-30T01:31:49.494Z,12.73
2017-10-30T01:34:23.818Z,9.55
2017-10-30T01:36:51.797Z,10.82
2017-10-30T01:39:22.573Z,11.52
2017-10-30T01:41:51.570Z,12.88
2017-10-30T01:44:19.606Z,20.20
2017-10-30T01:46:47.638Z,8.23
2017-10-30T01:49:26.414Z,15.23
2017-10-30T01:51:55.431Z,12.68
2017-10-30T01:54:23.461Z,14.10
2017-10-30T01:56:51.495Z,13.98
2017-10-30T01:59:19.538Z,9.73
2017-10-30T02:01:47.565Z,16.05
2017-10-30T02:04:15.605Z,13.18
2017-10-30T02:06:43.629Z,11.55
2017-10-30T02:09:11.654Z,15.80
2017-10-30T02:11:41.642Z,19.27
2017-10-30T02:14:11.446Z,19.92
2017-10-30T02:16:39.469Z,17.33
2017-10-30T02:19:07.602Z,13.13
2017-10-30T02:21:35.621Z,11.65
2017-10-30T02:24:03.642Z,11.40
2017-10-30T02:26:32.433Z,9.68
2017-10-30T02:29:01.225Z,18.08
2017-10-30T02:31:29.258Z,12.05
2017-10-30T02:34:01.554Z,11.90
2017-10-30T02:36:30.353Z,14.25
2017-10-30T02:38:58.393Z,15.40
2017-10-30T02:41:27.393Z,8.38
2017-10-30T02:43:55.417Z,16.30
2017-10-30T02:46:23.453Z,9.32
2017-10-30T02:48:52.351Z,15.95
2017-10-30T02:51:21.134Z,14.50
2017-10-30T02:53:49.165Z,15.05
2017-10-30T02:56:20.857Z,23.90
2017-10-30T02:58:48.897Z,18.15
2017-10-30T03:01:17.875Z,25.52
2017-10-30T03:03:46.793Z,13.02
2017-10-30T03:06:15.597Z,13.55
2017-10-30T03:08:43.636Z,16.80
2017-10-30T03:11:11.673Z,14.75
2017-10-30T03:13:46.317Z,9.38
2017-10-30T03:16:15.333Z,17.10
2017-10-30T03:18:46.113Z,14.20
2017-10-30T03:21:14.169Z,10.23
2017-10-30T03:23:43.121Z,9.45
2017-10-30T03:26:11.152Z,13.30
2017-10-30T03:28:40.181Z,14.50
2017-10-30T03:31:08.257Z,11.55
2017-10-30T03:33:36.288Z,14.00
2017-10-30T03:36:04.333Z,13.02
2017-10-30T03:38:32.392Z,14.32
2017-10-30T03:41:00.459Z,9.25
2017-10-30T03:43:29.240Z,10.88
2017-10-30T03:45:58.061Z,23.02
2017-10-30T03:48:26.072Z,10.77
2017-10-30T03:50:55.061Z,11.60
2017-10-30T03:53:23.989Z,13.18
2017-10-30T03:55:52.020Z,19.37
2017-10-30T03:58:20.043Z,19.80
2017-10-30T04:00:48.089Z,20.65
2017-10-30T04:03:16.872Z,19.12
2017-10-30T04:05:47.609Z,14.82
2017-10-30T04:08:17.392Z,16.45
2017-10-30T04:10:47.440Z,13.70
2017-10-30T04:13:17.212Z,17.50
2017-10-30T04:15:47.244Z,15.27
2017-10-30T04:18:16.232Z,18.73
2017-10-30T04:20:44.256Z,9.68
2017-10-30T04:23:12.308Z,16.12
2017-10-30T04:25:45.661Z,18.75
2017-10-30T04:28:13.748Z,13.77
2017-10-30T04:30:45.493Z,13.23
2017-10-30T04:33:15.616Z,12.37
2017-10-30T04:35:43.644Z,11.40
2017-10-30T04:38:17.878Z,15.68
2017-10-30T04:40:49.867Z,14.63
2017-10-30T04:43:18.873Z,12.00
2017-10-30T04:45:58.143Z,11.75
2017-10-30T04:48:28.097Z,16.52
2017-10-30T04:50:58.096Z,21.80
2017-10-30T04:53:27.860Z,14.85
2017-10-30T04:55:56.676Z,22.23
2017-10-30T04:58:28.592Z,14.48
2017-10-30T05:01:03.104Z,22.35
2017-10-30T05:03:34.559Z,14.02
2017-10-30T05:06:03.539Z,12.60
2017-10-30T05:08:33.548Z,9.27
2017-10-30T05:11:04.912Z,18.20
2017-10-30T05:13:41.440Z,14.38
2017-10-30T05:16:09.471Z,15.90
2017-10-30T05:18:38.260Z,22.48
2017-10-30T05:21:08.984Z,12.95
2017-10-30T05:23:36.987Z,15.60
2017-10-30T05:26:05.008Z,16.65
2017-10-30T05:28:33.992Z,13.00
2017-10-30T05:31:02.004Z,17.75
2017-10-30T05:33:30.044Z,22.75
2017-10-30T05:36:01.103Z,16.17
2017-10-30T05:38:30.879Z,11.82
2017-10-30T05:41:02.440Z,11.88
2017-10-30T05:43:30.463Z,13.75
2017-10-30T05:45:58.487Z,17.70
2017-10-30T05:48:26.531Z,25.05
2017-10-30T05:50:55.331Z,12.52
2017-10-30T05:53:24.332Z,17.50
2017-10-30T05:55:54.340Z,13.20
2017-10-30T05:58:25.675Z,14.18
2017-10-30T06:00:54.684Z,15.48
2017-10-30T06:03:22.703Z,41.05
2017-10-30T06:05:50.727Z,26.48
2017-10-30T06:08:19.719Z,19.05
2017-10-30T06:10:48.695Z,17.02
2017-10-30T06:13:21.075Z,21.37
2017-10-30T06:15:54.062Z,20.02
2017-10-30T06:18:22.080Z,13.48
2017-10-30T06:20:50.100Z,21.73
2017-10-30T06:23:18.120Z,14.87
2017-10-30T06:25:52.204Z,19.15
2017-10-30T06:28:21.976Z,18.62
2017-10-30T06:30:54.251Z,19.48
2017-10-30T06:33:22.275Z,18.50
2017-10-30T06:35:52.228Z,27.25
2017-10-30T06:38:24.419Z,23.73
2017-10-30T06:40:53.391Z,23.20
2017-10-30T06:43:21.408Z,19.00
2017-10-30T06:45:49.447Z,12.18
2017-10-30T06:48:18.423Z,20.52
2017-10-30T06:50:47.651Z,23.85
2017-10-30T06:53:16.435Z,17.00
2017-10-30T06:55:45.219Z,11.02
2017-10-30T06:58:13.999Z,18.20
2017-10-30T07:00:44.371Z,19.58
2017-10-30T07:03:16.478Z,24.87
2017-10-30T07:05:48.147Z,20.55
2017-10-30T07:08:17.119Z,16.15
2017-10-30T07:10:53.099Z,16.25
2017-10-30T07:13:22.067Z,19.50
2017-10-30T07:15:50.083Z,14.57
2017-10-30T07:18:18.879Z,14.32
2017-10-30T07:20:47.817Z,16.12
2017-10-30T07:23:18.867Z,18.50
2017-10-30T07:25:49.607Z,17.70
2017-10-30T07:28:17.622Z,13.05
2017-10-30T07:30:46.414Z,24.87
2017-10-30T07:33:14.419Z,20.48
2017-10-30T07:35:48.759Z,19.98
2017-10-30T07:38:22.367Z,19.98
2017-10-30T07:40:54.394Z,18.20
2017-10-30T07:43:23.383Z,24.00
2017-10-30T07:45:51.402Z,15.80
2017-10-30T07:48:22.103Z,20.12
2017-10-30T07:50:53.434Z,27.35
2017-10-30T07:53:23.462Z,20.05
2017-10-30T07:55:51.474Z,23.52
2017-10-30T07:58:19.495Z,16.52
2017-10-30T08:00:48.487Z,12.75
2017-10-30T08:03:17.476Z,18.77
2017-10-30T08:05:46.462Z,17.58
2017-10-30T08:08:15.479Z,26.60
2017-10-30T08:10:44.459Z,18.35
2017-10-30T08:13:13.447Z,18.70
2017-10-30T08:15:41.467Z,23.70
2017-10-30T08:18:09.515Z,13.20
2017-10-30T08:20:39.115Z,14.00
2017-10-30T08:23:07.906Z,24.95
2017-10-30T08:25:38.582Z,22.52
2017-10-30T08:28:07.450Z,15.82
2017-10-30T08:30:35.462Z,17.35
2017-10-30T08:33:03.486Z,18.67
2017-10-30T08:35:34.502Z,21.27
2017-10-30T08:38:03.283Z,15.07
2017-10-30T08:40:31.298Z,18.95
2017-10-30T08:42:59.338Z,23.60
2017-10-30T08:45:29.030Z,17.55
2017-10-30T08:47:58.006Z,15.30
2017-10-30T08:50:26.926Z,14.90
2017-10-30T08:52:55.710Z,12.37
2017-10-30T08:55:25.414Z,13.55
2017-10-30T08:57:54.219Z,17.67
2017-10-30T09:00:23.987Z,18.90
2017-10-30T09:02:54.018Z,18.77
2017-10-30T09:05:22.995Z,15.13
2017-10-30T09:07:54.674Z,13.18
2017-10-30T09:10:22.691Z,19.05
2017-10-30T09:12:51.712Z,13.88
2017-10-30T09:15:20.714Z,12.85
2017-10-30T09:17:48.730Z,14.68
2017-10-30T09:20:21.322Z,11.90
2017-10-30T09:22:49.329Z,16.42
2017-10-30T09:25:17.337Z,10.02
2017-10-30T09:27:45.442Z,11.55
2017-10-30T09:30:13.446Z,10.20
2017-10-30T09:32:43.454Z,12.07
2017-10-30T09:35:22.693Z,17.05
2017-10-30T09:37:51.781Z,10.80
2017-10-30T09:40:19.830Z,16.25
2017-10-30T09:42:48.789Z,12.52
2017-10-30T09:45:16.798Z,18.30
2017-10-30T09:47:44.930Z,16.35
2017-10-30T09:50:12.973Z,12.70
2017-10-30T09:52:41.433Z,11.50
2017-10-30T09:55:09.502Z,11.90
2017-10-30T09:57:38.506Z,10.18
2017-10-30T10:00:06.545Z,21.77
2017-10-30T10:02:37.910Z,16.50
2017-10-30T10:05:06.921Z,16.05
2017-10-30T10:07:39.513Z,11.50
2017-10-30T10:10:11.337Z,16.15
2017-10-30T10:12:41.381Z,12.88
2017-10-30T10:15:10.158Z,9.07
2017-10-30T10:17:42.013Z,14.43
2017-10-30T10:20:10.993Z,12.20
2017-10-30T10:22:40.001Z,9.73
2017-10-30T10:25:10.026Z,11.98
2017-10-30T10:27:40.737Z,14.07
2017-10-30T10:30:09.734Z,10.50
2017-10-30T10:32:38.733Z,10.45
2017-10-30T10:35:16.542Z,12.65
2017-10-30T10:37:51.957Z,5.53
2017-10-30T10:40:24.593Z,14.93
2017-10-30T10:42:52.614Z,11.60
2017-10-30T10:45:21.606Z,10.25
2017-10-30T10:47:49.653Z,12.75
2017-10-30T10:50:17.673Z,11.43
2017-10-30T10:52:47.471Z,12.25
2017-10-30T10:55:15.516Z,11.52
2017-10-30T10:57:43.521Z,9.27
2017-10-30T11:00:17.722Z,11.32
2017-10-30T11:02:49.367Z,7.85
2017-10-30T11:05:17.401Z,11.75
2017-10-30T11:07:45.429Z,12.30
2017-10-30T11:10:14.208Z,9.27
2017-10-30T11:12:43.005Z,8.48
2017-10-30T11:15:12.772Z,14.98
2017-10-30T11:17:40.802Z,6.82
2017-10-30T11:20:08.833Z,6.12
2017-10-30T11:22:37.744Z,9.45
2017-10-30T11:25:06.650Z,6.97
2017-10-30T11:27:34.669Z,6.37
2017-10-30T11:30:02.681Z,14.82
2017-10-30T11:32:31.481Z,8.77
2017-10-30T11:35:00.473Z,9.77
2017-10-30T11:37:28.521Z,6.78
2017-10-30T11:39:57.493Z,6.85
2017-10-30T11:42:25.536Z,4.85
2017-10-30T11:44:54.456Z,6.85
2017-10-30T11:47:22.509Z,8.90
2017-10-30T11:49:50.540Z,10.88
2017-10-30T11:52:18.564Z,10.43
2017-10-30T11:54:46.582Z,4.97
2017-10-30T11:57:15.549Z,10.57
2017-10-30T11:59:45.288Z,11.32
2017-10-30T12:02:13.323Z,10.88
2017-10-30T12:04:41.353Z,13.07
2017-10-30T12:07:10.360Z,6.47
2017-10-30T12:09:38.380Z,6.10
2017-10-30T12:12:07.332Z,6.85
2017-10-30T12:14:35.353Z,4.37
2017-10-30T12:17:03.365Z,5.30
2017-10-30T12:19:31.393Z,5.10
2017-10-30T12:22:00.193Z,6.72
2017-10-30T12:24:29.100Z,5.32
2017-10-30T12:26:57.140Z,5.97
2017-10-30T12:29:25.160Z,5.22
2017-10-30T12:31:53.205Z,4.55
2017-10-30T12:34:21.228Z,5.95
2017-10-30T12:36:52.022Z,3.12
2017-10-30T12:39:20.060Z,3.22
2017-10-30T12:41:52.804Z,4.45
2017-10-30T12:44:21.591Z,3.40
2017-10-30T12:46:52.472Z,3.35
2017-10-30T12:49:20.745Z,6.05
2017-10-30T12:51:48.761Z,3.65
2017-10-30T12:54:20.000Z,5.10
2017-10-30T12:56:48.028Z,6.37
2017-10-30T12:59:16.056Z,9.50
2017-10-30T13:01:44.872Z,3.50
2017-10-30T13:04:12.932Z,4.82
2017-10-30T13:06:41.848Z,6.68
2017-10-30T13:09:10.912Z,11.32
2017-10-30T13:11:38.994Z,7.85
2017-10-30T13:14:11.316Z,5.15
2017-10-30T13:16:39.360Z,8.23
2017-10-30T13:19:07.408Z,7.62
2017-10-30T13:21:35.460Z,5.70
2017-10-30T13:24:03.488Z,3.55
2017-10-30T13:26:31.505Z,7.07
2017-10-30T13:28:59.560Z,7.62
2017-10-30T13:31:29.244Z,7.43
2017-10-30T13:33:59.332Z,12.02
2017-10-30T13:36:27.356Z,8.52
2017-10-30T13:38:56.172Z,3.97
2017-10-30T13:41:24.207Z,4.72
2017-10-30T13:43:53.007Z,3.62
2017-10-30T13:46:21.799Z,3.65
2017-10-30T13:48:54.567Z,5.75
2017-10-30T13:51:23.376Z,6.12
2017-10-30T13:53:51.399Z,5.30
2017-10-30T13:56:20.208Z,4.45
2017-10-30T13:58:49.115Z,9.88
2017-10-30T14:01:17.900Z,5.65
2017-10-30T14:03:47.702Z,7.20
2017-10-30T14:06:19.236Z,19.80
2017-10-30T14:08:51.019Z,15.10
2017-10-30T14:11:19.791Z,8.23
2017-10-30T14:13:47.804Z,6.85
2017-10-30T14:16:17.587Z,3.37
2017-10-30T14:18:47.352Z,6.57
2017-10-30T14:21:16.352Z,6.12
2017-10-30T14:23:45.264Z,5.95
2017-10-30T14:26:13.282Z,5.18
2017-10-30T14:28:46.615Z,4.30
2017-10-30T14:31:14.627Z,7.85
2017-10-30T14:33:48.287Z,3.15
2017-10-30T14:36:16.299Z,5.53
2017-10-30T14:38:45.235Z,2.90
2017-10-30T14:41:13.267Z,2.70
2017-10-30T14:43:42.188Z,7.57
2017-10-30T14:46:10.215Z,4.27
2017-10-30T14:48:44.972Z,8.13
2017-10-30T14:51:14.911Z,3.12
2017-10-30T14:53:43.890Z,6.72
2017-10-30T14:56:13.926Z,1.77
2017-10-30T14:58:41.923Z,5.65
2017-10-30T15:01:13.471Z,5.62
2017-10-30T15:03:45.312Z,10.00
2017-10-30T15:06:18.959Z,7.30
2017-10-30T15:08:48.915Z,12.55
2017-10-30T15:11:23.635Z,7.87
2017-10-30T15:13:51.667Z,10.25
2017-10-30T15:16:19.683Z,10.80
2017-10-30T15:18:48.659Z,5.90
2017-10-30T15:21:17.691Z,6.68
2017-10-30T15:23:46.471Z,9.85
2017-10-30T15:26:16.179Z,7.87
2017-10-30T15:28:45.103Z,10.82
2017-10-30T15:31:13.114Z,7.00
2017-10-30T15:33:41.115Z,9.82
2017-10-30T15:36:13.703Z,11.00
2017-10-30T15:38:46.027Z,11.07
2017-10-30T15:41:14.975Z,7.65
2017-10-30T15:43:42.987Z,9.15
2017-10-30T15:46:15.598Z,8.63
2017-10-30T15:48:47.278Z,7.55
2017-10-30T15:51:15.314Z,7.85
2017-10-30T15:53:43.319Z,7.15
2017-10-30T15:56:13.210Z,6.55
2017-10-30T15:58:41.991Z,10.18
2017-10-30T16:01:11.455Z,11.02
2017-10-30T16:03:41.391Z,8.70
2017-10-30T16:06:09.404Z,7.70
2017-10-30T16:08:38.335Z,9.27
2017-10-30T16:11:06.355Z,9.77
2017-10-30T16:13:35.135Z,11.38
2017-10-30T16:16:08.731Z,11.70
2017-10-30T16:18:38.515Z,10.05
2017-10-30T16:21:06.535Z,11.90
2017-10-30T16:23:34.555Z,14.75
2017-10-30T16:26:03.338Z,9.13
2017-10-30T16:28:31.351Z,10.82
2017-10-30T16:31:01.123Z,14.60
2017-10-30T16:33:29.134Z,11.32
2017-10-30T16:35:57.146Z,16.00
2017-10-30T16:38:25.171Z,5.53
2017-10-30T16:40:53.194Z,10.43
2017-10-30T16:43:23.198Z,12.32
2017-10-30T16:45:53.242Z,12.63
2017-10-30T16:48:21.253Z,8.25
2017-10-30T16:50:50.193Z,8.45
2017-10-30T16:53:19.194Z,15.50
2017-10-30T16:55:48.170Z,8.00
2017-10-30T16:58:16.182Z,6.57
2017-10-30T17:00:44.975Z,12.75
2017-10-30T17:03:13.538Z,6.37
2017-10-30T17:05:47.122Z,12.93
2017-10-30T17:08:15.134Z,12.13
2017-10-30T17:10:43.146Z,16.12
2017-10-30T17:13:11.174Z,12.88
2017-10-30T17:15:41.754Z,15.02
2017-10-30T17:18:09.777Z,14.63
2017-10-30T17:20:38.709Z,19.50
2017-10-30T17:23:07.746Z,32.28
2017-10-30T17:25:35.718Z,16.55
2017-10-30T17:28:03.742Z,21.65
2017-10-30T17:30:41.606Z,18.55
2017-10-30T17:33:09.658Z,22.13
2017-10-30T17:35:38.426Z,13.43
2017-10-30T17:38:08.210Z,10.80
2017-10-30T17:40:36.233Z,10.10
2017-10-30T17:43:04.250Z,14.95
2017-10-30T17:45:34.257Z,25.48
2017-10-30T17:48:06.326Z,22.90
2017-10-30T17:50:35.310Z,21.92
2017-10-30T17:53:03.335Z,15.20
2017-10-30T17:55:33.121Z,16.73
2017-10-30T17:58:01.901Z,11.98
2017-10-30T18:00:29.918Z,11.43
2017-10-30T18:02:58.857Z,16.62
2017-10-30T18:05:26.874Z,13.30
2017-10-30T18:07:54.885Z,13.75
2017-10-30T18:10:22.921Z,21.10
2017-10-30T18:12:50.937Z,21.73
2017-10-30T18:15:18.946Z,33.17
2017-10-30T18:17:47.917Z,32.65
2017-10-30T18:20:17.702Z,46.72
2017-10-30T18:22:49.152Z,40.03
2017-10-30T18:25:17.213Z,24.10
2017-10-30T18:27:46.141Z,32.65
2017-10-30T18:30:18.698Z,21.40
2017-10-30T18:32:46.710Z,21.20
2017-10-30T18:35:14.745Z,20.08
2017-10-30T18:37:46.085Z,17.35
2017-10-30T18:40:14.634Z,18.33
2017-10-30T18:42:42.698Z,18.65
2017-10-30T18:45:11.730Z,18.30
2017-10-30T18:47:39.754Z,15.55
2017-10-30T18:50:07.766Z,10.77
2017-10-30T18:52:36.765Z,15.88
2017-10-30T18:55:04.799Z,11.98
2017-10-30T18:57:34.737Z,10.55
2017-10-30T19:00:02.764Z,9.15
2017-10-30T19:02:30.785Z,11.90
2017-10-30T19:04:58.825Z,15.95
2017-10-30T19:07:26.861Z,17.17
2017-10-30T19:09:54.889Z,11.18
2017-10-30T19:12:22.905Z,23.12
2017-10-30T19:14:50.961Z,14.35
2017-10-30T19:17:20.633Z,14.68
2017-10-30T19:19:48.661Z,12.82
2017-10-30T19:22:17.710Z,14.60
2017-10-30T19:24:45.761Z,16.75
2017-10-30T19:27:13.773Z,16.45
2017-10-30T19:29:42.573Z,19.10
2017-10-30T19:32:11.485Z,18.60
2017-10-30T19:34:39.505Z,15.48
2017-10-30T19:37:08.309Z,21.35
2017-10-30T19:39:37.102Z,12.25
2017-10-30T19:42:06.872Z,16.75
2017-10-30T19:44:34.937Z,30.15
2017-10-30T19:47:02.949Z,14.65
2017-10-30T19:49:31.743Z,11.43
2017-10-30T19:51:59.768Z,52.15
2017-10-30T19:54:27.797Z,31.08
2017-10-30T19:56:55.825Z,20.60
2017-10-30T19:59:24.617Z,31.83
2017-10-30T20:01:58.401Z,12.60
2017-10-30T20:04:26.448Z,17.00
2017-10-30T20:07:02.021Z,14.57
2017-10-30T20:09:35.809Z,14.23
2017-10-30T20:12:09.564Z,16.55
2017-10-30T20:14:37.797Z,18.62
2017-10-30T20:17:13.113Z,18.00
2017-10-30T20:19:42.145Z,17.30
2017-10-30T20:22:11.136Z,26.35
2017-10-30T20:24:40.864Z,24.00
2017-10-30T20:27:09.701Z,19.83
2017-10-30T20:29:37.853Z,18.12
2017-10-30T20:32:05.905Z,18.90
2017-10-30T20:34:35.885Z,14.40
2017-10-30T20:37:04.865Z,15.95
2017-10-30T20:39:32.897Z,16.95
2017-10-30T20:42:01.949Z,16.83
2017-10-30T20:44:29.960Z,13.00
2017-10-30T20:46:57.976Z,14.95
2017-10-30T20:49:26.008Z,13.52
2017-10-30T20:51:54.032Z,10.60
2017-10-30T20:54:22.821Z,16.67
2017-10-30T20:56:51.797Z,12.85
2017-10-30T20:59:19.836Z,10.23
2017-10-30T21:01:49.881Z,11.55
2017-10-30T21:04:18.889Z,10.68
2017-10-30T21:06:47.860Z,9.60
2017-10-30T21:09:15.876Z,12.25
2017-10-30T21:11:43.931Z,12.05
2017-10-30T21:14:12.724Z,14.52
2017-10-30T21:16:44.757Z,12.65
2017-10-30T21:19:12.776Z,11.45
2017-10-30T21:21:40.794Z,20.95
2017-10-30T21:24:08.841Z,13.20
2017-10-30T21:26:37.861Z,12.80
2017-10-30T21:29:06.848Z,13.25
2017-10-30T21:31:34.889Z,13.90
2017-10-30T21:34:02.904Z,9.50
2017-10-30T21:36:30.952Z,12.20
2017-10-30T21:38:58.984Z,14.00
2017-10-30T21:41:27.011Z,11.05
2017-10-30T21:43:55.920Z,14.38
2017-10-30T21:46:24.719Z,18.23
2017-10-30T21:48:52.744Z,23.30
2017-10-30T21:51:20.776Z,14.87
2017-10-30T21:53:50.392Z,14.85
2017-10-30T21:56:19.327Z,15.80
2017-10-30T21:58:47.344Z,10.73
2017-10-30T22:01:15.376Z,14.45
2017-10-30T22:03:44.160Z,20.80
2017-10-30T22:06:12.171Z,18.98
2017-10-30T22:08:40.226Z,22.02
2017-10-30T22:11:09.983Z,17.12
2017-10-30T22:13:38.012Z,14.07
2017-10-30T22:16:06.036Z,12.37
2017-10-30T22:18:34.072Z,15.65
2017-10-30T22:21:03.092Z,13.75
2017-10-30T22:23:31.127Z,10.05
2017-10-30T22:26:01.996Z,17.83
2017-10-30T22:28:30.016Z,12.95
2017-10-30T22:30:58.975Z,19.17
2017-10-30T22:33:27.951Z,16.45
2017-10-30T22:35:55.970Z,18.33
2017-10-30T22:38:24.023Z,17.77
2017-10-30T22:40:56.148Z,20.45
2017-10-30T22:43:24.188Z,15.68
2017-10-30T22:45:52.199Z,12.93
2017-10-30T22:48:20.215Z,18.95
2017-10-30T22:50:49.008Z,17.40
2017-10-30T22:53:18.055Z,13.95
2017-10-30T22:55:46.116Z,15.82
2017-10-30T22:58:14.235Z,11.05
2017-10-30T23:00:43.179Z,19.30
2017-10-30T23:03:13.179Z,17.58
2017-10-30T23:05:43.220Z,15.93
2017-10-30T23:08:11.243Z,15.07
2017-10-30T23:10:39.251Z,17.37
2017-10-30T23:13:08.239Z,13.80
2017-10-30T23:15:36.251Z,19.10
2017-10-30T23:18:06.420Z,12.43
2017-10-30T23:20:34.446Z,10.77
2017-10-30T23:23:02.471Z,16.20
2017-10-30T23:25:30.479Z,15.93
2017-10-30T23:27:58.507Z,23.55
2017-10-30T23:30:26.520Z,19.00
2017-10-30T23:32:55.459Z,18.55
2017-10-30T23:35:23.489Z,19.52
2017-10-30T23:37:52.395Z,18.48
2017-10-30T23:40:20.411Z,13.27
2017-10-30T23:42:53.691Z,11.25
2017-10-30T23:45:21.703Z,13.13
2017-10-30T23:47:49.723Z,10.80
2017-10-30T23:50:17.755Z,19.42
2017-10-30T23:52:45.767Z,14.00
2017-10-30T23:55:13.783Z,14.63
2017-10-30T23:57:41.807Z,11.05
